createdAt,value
2017-05-25T00:01:41.588Z,3.34
2017-05-25T00:04:09.131Z,3.50
2017-05-25T00:06:36.784Z,3.50
2017-05-25T00:09:04.085Z,4.12
2017-05-25T00:11:31.406Z,4.10
2017-05-25T00:13:58.886Z,3.70
2017-05-25T00:16:26.117Z,3.94
2017-05-25T00:18:52.694Z,3.28
2017-05-25T00:21:20.080Z,3.86
2017-05-25T00:23:47.418Z,5.08
2017-05-25T00:26:14.786Z,4.00
2017-05-25T00:28:42.165Z,4.02
2017-05-25T00:31:09.488Z,4.20
2017-05-25T00:33:36.865Z,4.84
2017-05-25T00:36:04.113Z,4.18
2017-05-25T00:38:31.581Z,4.20
2017-05-25T00:40:59.064Z,4.00
2017-05-25T00:43:26.449Z,3.78
2017-05-25T00:45:53.809Z,4.20
2017-05-25T00:48:21.113Z,4.12
2017-05-25T00:50:48.484Z,4.30
2017-05-25T00:53:15.820Z,4.44
2017-05-25T00:55:43.206Z,4.12
2017-05-25T00:58:10.468Z,4.40
2017-05-25T01:00:37.855Z,4.47
2017-05-25T01:03:05.317Z,3.88
2017-05-25T01:05:32.713Z,4.82
2017-05-25T01:08:00.082Z,4.68
2017-05-25T01:10:28.659Z,4.84
2017-05-25T01:12:55.997Z,4.92
2017-05-25T01:15:23.538Z,5.68
2017-05-25T01:17:50.988Z,4.84
2017-05-25T01:20:18.381Z,4.98
2017-05-25T01:22:45.664Z,5.64
2017-05-25T01:25:13.021Z,5.15
2017-05-25T01:27:40.863Z,5.64
2017-05-25T01:30:08.232Z,5.18
2017-05-25T01:32:35.527Z,5.44
2017-05-25T01:35:04.308Z,5.56
2017-05-25T01:37:31.680Z,5.13
2017-05-25T01:39:59.054Z,4.60
2017-05-25T01:42:26.543Z,5.57
2017-05-25T01:44:53.893Z,5.00
2017-05-25T01:47:21.112Z,5.22
2017-05-25T01:49:48.441Z,5.32
2017-05-25T01:52:15.792Z,4.70
2017-05-25T01:54:43.138Z,5.08
2017-05-25T01:57:10.475Z,5.08
2017-05-25T01:59:37.885Z,5.00
2017-05-25T02:02:06.077Z,5.37
2017-05-25T02:04:33.432Z,4.85
2017-05-25T02:07:00.776Z,5.75
2017-05-25T02:09:28.103Z,5.77
2017-05-25T02:11:55.453Z,5.85
2017-05-25T02:14:22.947Z,5.60
2017-05-25T02:16:50.277Z,6.55
2017-05-25T02:19:17.618Z,6.50
2017-05-25T02:21:44.947Z,6.42
2017-05-25T02:24:12.225Z,6.50
2017-05-25T02:26:39.574Z,6.37
2017-05-25T02:29:06.916Z,7.05
2017-05-25T02:31:34.245Z,6.55
2017-05-25T02:34:01.631Z,7.63
2017-05-25T02:36:29.019Z,8.40
2017-05-25T02:38:56.355Z,8.03
2017-05-25T02:41:23.595Z,8.68
2017-05-25T02:43:50.936Z,8.85
2017-05-25T02:46:18.317Z,9.47
2017-05-25T02:48:45.692Z,9.30
2017-05-25T02:51:13.341Z,9.70
2017-05-25T02:53:40.649Z,10.60
2017-05-25T02:56:07.921Z,10.13
2017-05-25T02:58:35.274Z,10.24
2017-05-25T03:01:02.604Z,9.84
2017-05-25T03:03:30.409Z,10.20
2017-05-25T03:05:57.737Z,9.53
2017-05-25T03:08:25.077Z,8.90
2017-05-25T03:10:52.418Z,9.54
2017-05-25T03:13:19.783Z,10.46
2017-05-25T03:15:47.132Z,10.54
2017-05-25T03:18:14.465Z,9.18
2017-05-25T03:20:41.708Z,9.98
2017-05-25T03:23:08.954Z,10.38
2017-05-25T03:25:36.188Z,9.88
2017-05-25T03:28:03.504Z,10.48
2017-05-25T03:30:30.852Z,9.28
2017-05-25T03:32:58.187Z,9.88
2017-05-25T03:35:25.397Z,9.74
2017-05-25T03:37:52.712Z,9.52
2017-05-25T03:40:20.217Z,9.33
2017-05-25T03:42:47.419Z,9.50
2017-05-25T03:45:14.761Z,10.60
2017-05-25T03:47:42.094Z,9.44
2017-05-25T03:50:09.489Z,9.58
2017-05-25T03:52:36.825Z,9.48
2017-05-25T03:55:04.137Z,9.30
2017-05-25T03:57:31.516Z,9.96
2017-05-25T03:59:58.810Z,9.17
2017-05-25T04:02:26.061Z,10.58
2017-05-25T04:04:53.413Z,10.14
2017-05-25T04:07:20.756Z,8.72
2017-05-25T04:09:48.072Z,9.62
2017-05-25T04:12:15.418Z,8.40
2017-05-25T04:14:42.763Z,9.78
2017-05-25T04:17:10.081Z,8.96
2017-05-25T04:19:37.318Z,9.20
2017-05-25T04:22:04.558Z,9.20
2017-05-25T04:24:32.106Z,9.24
2017-05-25T04:26:59.336Z,9.00
2017-05-25T04:29:25.927Z,9.64
2017-05-25T04:31:53.101Z,9.52
2017-05-25T04:34:21.084Z,9.86
2017-05-25T04:36:48.396Z,9.98
2017-05-25T04:39:15.738Z,9.77
2017-05-25T04:41:43.289Z,10.36
2017-05-25T04:44:10.635Z,10.50
2017-05-25T04:46:37.956Z,10.30
2017-05-25T04:49:05.665Z,9.72
2017-05-25T04:51:33.035Z,9.62
2017-05-25T04:54:00.394Z,10.80
2017-05-25T04:56:27.740Z,10.62
2017-05-25T04:58:54.305Z,10.52
2017-05-25T05:01:22.909Z,12.36
2017-05-25T05:03:50.169Z,11.20
2017-05-25T05:06:17.564Z,10.98
2017-05-25T05:08:44.982Z,10.94
2017-05-25T05:11:12.382Z,11.38
2017-05-25T05:13:41.434Z,11.70
2017-05-25T05:16:12.952Z,11.42
2017-05-25T05:18:41.450Z,11.42
2017-05-25T05:21:08.786Z,10.34
2017-05-25T05:23:36.242Z,12.13
2017-05-25T05:26:03.465Z,10.94
2017-05-25T05:28:30.806Z,10.94
2017-05-25T05:30:58.356Z,10.32
2017-05-25T05:33:25.773Z,11.32
2017-05-25T05:35:53.016Z,11.40
2017-05-25T05:38:20.471Z,11.26
2017-05-25T05:40:47.309Z,12.20
2017-05-25T05:43:14.609Z,10.56
2017-05-25T05:45:41.881Z,10.92
2017-05-25T05:48:09.268Z,10.62
2017-05-25T05:50:36.665Z,10.76
2017-05-25T05:53:04.000Z,9.86
2017-05-25T05:55:31.342Z,9.86
2017-05-25T05:57:58.705Z,10.22
2017-05-25T06:00:26.108Z,10.10
2017-05-25T06:02:53.463Z,9.98
2017-05-25T06:05:20.859Z,9.84
2017-05-25T06:07:48.181Z,10.42
2017-05-25T06:10:15.491Z,13.30
2017-05-25T06:12:43.159Z,10.52
2017-05-25T06:15:10.644Z,10.18
2017-05-25T06:17:37.898Z,9.70
2017-05-25T06:20:05.239Z,10.96
2017-05-25T06:22:32.569Z,12.26
2017-05-25T06:24:59.854Z,10.30
2017-05-25T06:27:27.697Z,9.70
2017-05-25T06:29:55.080Z,8.74
2017-05-25T06:32:22.284Z,10.08
2017-05-25T06:34:49.620Z,10.00
2017-05-25T06:37:17.416Z,8.92
2017-05-25T06:39:44.731Z,8.94
2017-05-25T06:42:12.033Z,9.86
2017-05-25T06:44:39.747Z,10.06
2017-05-25T06:47:13.911Z,9.96
2017-05-25T06:49:41.351Z,10.00
2017-05-25T06:52:08.900Z,9.62
2017-05-25T06:54:36.274Z,9.96
2017-05-25T06:57:03.749Z,9.86
2017-05-25T06:59:31.102Z,9.62
2017-05-25T07:01:58.501Z,8.82
2017-05-25T07:04:25.870Z,9.10
2017-05-25T07:06:53.201Z,8.04
2017-05-25T07:09:20.481Z,8.86
2017-05-25T07:11:48.703Z,7.98
2017-05-25T07:14:17.884Z,8.56
2017-05-25T07:16:47.127Z,9.60
2017-05-25T07:19:14.477Z,10.02
2017-05-25T07:21:41.832Z,8.78
2017-05-25T07:24:09.278Z,9.24
2017-05-25T07:26:36.603Z,9.62
2017-05-25T07:29:03.936Z,10.44
2017-05-25T07:31:31.274Z,9.60
2017-05-25T07:33:58.581Z,10.04
2017-05-25T07:36:25.917Z,10.40
2017-05-25T07:38:53.289Z,9.18
2017-05-25T07:41:20.632Z,8.90
2017-05-25T07:43:47.854Z,8.84
2017-05-25T07:46:15.246Z,9.12
2017-05-25T07:48:43.305Z,8.64
2017-05-25T07:51:10.740Z,8.94
2017-05-25T07:53:38.169Z,9.46
2017-05-25T07:56:05.533Z,8.96
2017-05-25T07:58:32.886Z,10.02
2017-05-25T08:00:59.452Z,9.90
2017-05-25T08:03:26.824Z,9.32
2017-05-25T08:05:54.164Z,8.32
2017-05-25T08:08:21.605Z,8.80
2017-05-25T08:10:49.471Z,9.64
2017-05-25T08:13:16.793Z,8.36
2017-05-25T08:15:44.116Z,8.04
2017-05-25T08:18:11.467Z,7.62
2017-05-25T08:20:39.059Z,6.90
2017-05-25T08:23:06.507Z,7.12
2017-05-25T08:25:33.893Z,6.58
2017-05-25T08:28:01.136Z,6.48
2017-05-25T08:30:28.384Z,7.18
2017-05-25T08:32:56.743Z,5.68
2017-05-25T08:35:24.120Z,6.48
2017-05-25T08:37:51.458Z,6.12
2017-05-25T08:40:18.898Z,7.74
2017-05-25T08:42:46.241Z,6.70
2017-05-25T08:45:13.594Z,7.42
2017-05-25T08:47:41.046Z,6.84
2017-05-25T08:50:08.469Z,6.74
2017-05-25T08:52:35.870Z,7.26
2017-05-25T08:55:03.212Z,6.58
2017-05-25T08:57:30.697Z,7.44
2017-05-25T08:59:57.958Z,8.00
2017-05-25T09:02:25.339Z,8.42
2017-05-25T09:04:52.665Z,7.80
2017-05-25T09:07:19.912Z,7.96
2017-05-25T09:09:47.247Z,8.52
2017-05-25T09:12:14.581Z,7.52
2017-05-25T09:14:41.941Z,8.02
2017-05-25T09:17:08.521Z,7.94
2017-05-25T09:19:35.884Z,7.16
2017-05-25T09:22:09.450Z,7.92
2017-05-25T09:24:37.858Z,8.26
2017-05-25T09:27:05.219Z,7.78
2017-05-25T09:29:32.778Z,7.58
2017-05-25T09:32:00.059Z,7.22
2017-05-25T09:34:27.421Z,7.60
2017-05-25T09:36:54.805Z,8.10
2017-05-25T09:39:22.142Z,7.76
2017-05-25T09:41:49.545Z,7.66
2017-05-25T09:44:16.859Z,8.94
2017-05-25T09:46:44.117Z,8.12
2017-05-25T09:49:11.446Z,8.42
2017-05-25T09:51:38.737Z,7.44
2017-05-25T09:54:06.132Z,6.50
2017-05-25T09:56:33.308Z,6.74
2017-05-25T09:59:00.613Z,7.82
2017-05-25T10:01:27.974Z,8.44
2017-05-25T10:03:55.308Z,8.66
2017-05-25T10:06:23.064Z,10.12
2017-05-25T10:08:50.497Z,8.98
2017-05-25T10:11:17.815Z,9.16
2017-05-25T10:13:45.128Z,7.88
2017-05-25T10:16:13.434Z,8.34
2017-05-25T10:18:41.868Z,9.04
2017-05-25T10:21:12.857Z,9.36
2017-05-25T10:23:40.162Z,8.80
2017-05-25T10:26:07.756Z,9.50
2017-05-25T10:28:35.053Z,10.76
2017-05-25T10:31:02.361Z,9.38
2017-05-25T10:33:29.656Z,8.28
2017-05-25T10:35:56.962Z,8.46
2017-05-25T10:38:24.484Z,7.92
2017-05-25T10:40:51.813Z,8.30
2017-05-25T10:43:19.113Z,7.36
2017-05-25T10:45:46.457Z,7.04
2017-05-25T10:48:13.946Z,8.32
2017-05-25T10:50:41.251Z,8.32
2017-05-25T10:53:08.541Z,9.04
2017-05-25T10:55:35.876Z,7.12
2017-05-25T10:58:03.118Z,6.92
2017-05-25T11:00:30.863Z,7.06
2017-05-25T11:02:57.501Z,6.80
2017-05-25T11:05:25.362Z,7.46
2017-05-25T11:07:52.826Z,8.14
2017-05-25T11:10:20.221Z,6.42
2017-05-25T11:12:46.821Z,7.24
2017-05-25T11:15:14.573Z,9.26
2017-05-25T11:17:43.597Z,7.00
2017-05-25T11:20:10.180Z,8.08
2017-05-25T11:22:37.561Z,7.92
2017-05-25T11:25:04.915Z,9.10
2017-05-25T11:27:32.245Z,6.88
2017-05-25T11:29:59.649Z,6.84
2017-05-25T11:32:26.097Z,8.82
2017-05-25T11:34:53.437Z,8.00
2017-05-25T11:37:20.774Z,7.94
2017-05-25T11:39:48.089Z,7.46
2017-05-25T11:42:15.399Z,7.54
2017-05-25T11:44:42.639Z,7.40
2017-05-25T11:47:09.940Z,6.84
2017-05-25T11:49:37.277Z,7.20
2017-05-25T11:52:04.661Z,7.48
2017-05-25T11:54:31.982Z,6.00
2017-05-25T11:56:59.325Z,7.64
2017-05-25T11:59:26.647Z,7.84
2017-05-25T12:01:53.968Z,7.50
2017-05-25T12:04:21.265Z,6.42
2017-05-25T12:06:48.497Z,6.52
2017-05-25T12:09:15.829Z,7.24
2017-05-25T12:11:43.146Z,6.02
2017-05-25T12:14:10.545Z,6.38
2017-05-25T12:16:37.860Z,7.74
2017-05-25T12:19:04.477Z,6.14
2017-05-25T12:21:31.820Z,5.82
2017-05-25T12:23:59.193Z,4.22
2017-05-25T12:26:26.576Z,5.68
2017-05-25T12:31:39.541Z,5.42
2017-05-25T12:34:06.608Z,5.14
2017-05-25T12:36:32.946Z,4.42
2017-05-25T12:39:00.013Z,4.30
2017-05-25T12:41:29.532Z,5.10
2017-05-25T12:43:56.701Z,4.40
2017-05-25T12:46:24.208Z,4.80
2017-05-25T12:48:51.399Z,4.68
2017-05-25T12:51:18.696Z,4.90
2017-05-25T12:53:45.860Z,5.34
2017-05-25T12:56:13.103Z,4.46
2017-05-25T12:58:40.991Z,4.40
2017-05-25T13:01:08.141Z,4.58
2017-05-25T13:03:35.287Z,4.34
2017-05-25T13:06:02.784Z,4.22
2017-05-25T13:08:30.189Z,3.96
2017-05-25T13:10:57.462Z,4.50
2017-05-25T13:13:24.772Z,3.62
2017-05-25T13:15:52.109Z,3.44
2017-05-25T13:18:18.706Z,2.84
2017-05-25T13:20:46.014Z,3.82
2017-05-25T13:23:13.425Z,4.36
2017-05-25T13:25:40.757Z,3.44
2017-05-25T13:28:08.097Z,3.62
2017-05-25T13:30:34.771Z,3.82
2017-05-25T13:33:02.124Z,4.40
2017-05-25T13:35:30.366Z,3.80
2017-05-25T13:37:57.704Z,3.36
2017-05-25T13:40:24.985Z,3.68
2017-05-25T13:42:52.317Z,3.68
2017-05-25T13:45:19.601Z,4.72
2017-05-25T13:47:46.980Z,3.98
2017-05-25T13:50:14.272Z,4.32
2017-05-25T13:52:41.544Z,5.24
2017-05-25T13:55:08.845Z,3.90
2017-05-25T13:57:36.257Z,4.56
2017-05-25T14:00:03.564Z,3.96
2017-05-25T14:02:30.898Z,4.10
2017-05-25T14:04:58.194Z,4.34
2017-05-25T14:07:25.496Z,4.30
2017-05-25T14:09:52.944Z,4.26
2017-05-25T14:12:20.149Z,4.68
2017-05-25T14:14:47.420Z,4.44
2017-05-25T14:17:14.730Z,5.00
2017-05-25T14:19:42.021Z,4.08
2017-05-25T14:22:09.201Z,4.18
2017-05-25T14:24:36.514Z,4.52
2017-05-25T14:27:03.849Z,4.02
2017-05-25T14:29:31.149Z,3.96
2017-05-25T14:31:58.713Z,4.54
2017-05-25T14:34:25.996Z,4.04
2017-05-25T14:36:53.293Z,3.78
2017-05-25T14:39:20.635Z,3.82
2017-05-25T14:41:47.933Z,3.90
2017-05-25T14:44:15.249Z,4.24
2017-05-25T14:46:42.489Z,5.06
2017-05-25T14:49:09.821Z,4.88
2017-05-25T14:51:37.140Z,5.68
2017-05-25T14:54:04.498Z,4.92
2017-05-25T14:56:31.680Z,4.36
2017-05-25T14:58:58.972Z,4.40
2017-05-25T15:01:25.832Z,4.22
2017-05-25T15:03:53.087Z,4.10
2017-05-25T15:06:21.132Z,4.50
2017-05-25T15:08:48.442Z,4.84
2017-05-25T15:11:16.652Z,3.46
2017-05-25T15:13:44.032Z,3.60
2017-05-25T15:16:11.406Z,4.12
2017-05-25T15:18:38.760Z,3.40
2017-05-25T15:21:12.977Z,3.70
2017-05-25T15:23:40.037Z,3.58
2017-05-25T15:26:07.108Z,4.30
2017-05-25T15:28:34.492Z,5.10
2017-05-25T15:31:01.576Z,3.90
2017-05-25T15:33:29.390Z,3.84
2017-05-25T15:35:56.556Z,4.70
2017-05-25T15:38:24.045Z,5.26
2017-05-25T15:40:51.254Z,3.94
2017-05-25T15:43:18.548Z,4.68
2017-05-25T15:45:45.905Z,4.00
2017-05-25T15:48:13.216Z,3.96
2017-05-25T15:50:39.800Z,4.78
2017-05-25T15:53:07.118Z,4.98
2017-05-25T15:55:34.444Z,4.48
2017-05-25T15:58:01.936Z,4.16
2017-05-25T16:00:29.580Z,4.18
2017-05-25T16:02:56.778Z,3.98
2017-05-25T16:05:25.393Z,4.48
2017-05-25T16:07:52.788Z,4.56
2017-05-25T16:10:20.088Z,4.42
2017-05-25T16:12:47.445Z,6.00
2017-05-25T16:15:14.742Z,5.36
2017-05-25T16:17:42.081Z,5.12
2017-05-25T16:20:09.387Z,3.88
2017-05-25T16:22:36.696Z,4.50
2017-05-25T16:25:04.050Z,3.92
2017-05-25T16:27:31.339Z,5.52
2017-05-25T16:29:57.925Z,4.54
2017-05-25T16:32:25.502Z,5.02
2017-05-25T16:34:52.852Z,4.68
2017-05-25T16:37:20.146Z,4.28
2017-05-25T16:39:47.553Z,4.58
2017-05-25T16:42:14.749Z,5.46
2017-05-25T16:44:42.592Z,4.78
2017-05-25T16:47:09.993Z,5.08
2017-05-25T16:49:37.605Z,4.08
2017-05-25T16:52:05.852Z,4.10
2017-05-25T16:54:33.377Z,3.52
2017-05-25T16:56:59.993Z,4.08
2017-05-25T16:59:27.305Z,3.76
2017-05-25T17:01:54.808Z,4.80
2017-05-25T17:04:22.278Z,4.06
2017-05-25T17:06:49.865Z,4.58
2017-05-25T17:09:17.835Z,4.32
2017-05-25T17:11:45.223Z,3.94
2017-05-25T17:14:12.536Z,4.34
2017-05-25T17:16:39.880Z,3.72
2017-05-25T17:19:07.215Z,3.86
2017-05-25T17:21:34.519Z,4.08
2017-05-25T17:24:01.894Z,4.12
2017-05-25T17:26:29.192Z,4.28
2017-05-25T17:28:56.498Z,4.16
2017-05-25T17:31:23.875Z,3.74
2017-05-25T17:33:51.082Z,4.30
2017-05-25T17:36:18.404Z,3.52
2017-05-25T17:38:45.610Z,3.82
2017-05-25T17:41:12.845Z,3.82
2017-05-25T17:43:40.164Z,3.56
2017-05-25T17:46:07.496Z,3.70
2017-05-25T17:48:34.779Z,4.00
2017-05-25T17:51:02.100Z,4.02
2017-05-25T17:53:29.445Z,4.72
2017-05-25T17:55:56.637Z,4.16
2017-05-25T17:58:24.154Z,4.18
2017-05-25T18:00:51.466Z,3.50
2017-05-25T18:03:18.793Z,3.96
2017-05-25T18:05:46.043Z,3.84
2017-05-25T18:08:13.369Z,3.62
2017-05-25T18:10:41.124Z,4.64
2017-05-25T18:13:08.433Z,4.36
2017-05-25T18:15:35.768Z,4.10
2017-05-25T18:18:03.105Z,3.68
2017-05-25T18:20:29.664Z,3.74
2017-05-25T18:22:56.966Z,4.92
2017-05-25T18:25:24.577Z,3.22
2017-05-25T18:27:52.402Z,3.96
2017-05-25T18:30:19.692Z,3.92
2017-05-25T18:32:47.069Z,3.16
2017-05-25T18:35:14.772Z,3.40
2017-05-25T18:37:42.329Z,3.04
2017-05-25T18:40:09.670Z,3.32
2017-05-25T18:42:36.984Z,3.00
2017-05-25T18:45:04.216Z,3.16
2017-05-25T18:47:31.516Z,3.42
2017-05-25T18:49:58.845Z,3.10
2017-05-25T18:52:32.916Z,3.50
2017-05-25T18:55:00.216Z,3.24
2017-05-25T18:57:26.804Z,3.34
2017-05-25T18:59:56.681Z,3.62
2017-05-25T19:02:30.881Z,3.06
2017-05-25T19:04:58.349Z,3.38
2017-05-25T19:07:26.233Z,3.40
2017-05-25T19:09:54.989Z,3.50
2017-05-25T19:12:22.437Z,3.68
2017-05-25T19:14:49.656Z,3.50
2017-05-25T19:17:17.017Z,3.30
2017-05-25T19:19:44.213Z,3.30
2017-05-25T19:22:11.389Z,2.48
2017-05-25T19:24:39.232Z,3.02
2017-05-25T19:27:07.290Z,2.96
2017-05-25T19:29:34.805Z,3.60
2017-05-25T19:32:01.527Z,3.40
2017-05-25T19:34:33.790Z,4.38
2017-05-25T19:37:01.783Z,4.10
2017-05-25T19:39:29.103Z,3.00
2017-05-25T19:41:56.325Z,3.58
2017-05-25T19:44:23.653Z,4.02
2017-05-25T19:46:50.998Z,3.68
2017-05-25T19:49:18.373Z,3.30
2017-05-25T19:51:45.696Z,3.88
2017-05-25T19:54:13.161Z,3.26
2017-05-25T19:56:40.520Z,5.96
2017-05-25T19:59:07.861Z,9.22
2017-05-25T20:01:35.236Z,9.78
2017-05-25T20:04:02.572Z,6.40
2017-05-25T20:06:30.032Z,4.84
2017-05-25T20:08:57.231Z,3.98
2017-05-25T20:11:23.958Z,5.10
2017-05-25T20:13:51.339Z,4.76
2017-05-25T20:16:18.641Z,4.42
2017-05-25T20:18:45.977Z,5.78
2017-05-25T20:21:13.333Z,5.20
2017-05-25T20:23:40.690Z,4.96
2017-05-25T20:26:08.244Z,6.08
2017-05-25T20:28:35.576Z,6.48
2017-05-25T20:31:02.958Z,8.38
2017-05-25T20:33:30.258Z,6.16
2017-05-25T20:35:57.626Z,6.20
2017-05-25T20:38:25.276Z,4.88
2017-05-25T20:40:52.668Z,6.16
2017-05-25T20:43:19.321Z,4.78
2017-05-25T20:45:46.604Z,4.16
2017-05-25T20:48:13.902Z,4.38
2017-05-25T20:50:41.262Z,4.00
2017-05-25T20:53:08.514Z,3.92
2017-05-25T20:55:35.737Z,3.90
2017-05-25T20:58:03.061Z,3.82
2017-05-25T21:00:30.361Z,3.90
2017-05-25T21:02:57.745Z,4.04
2017-05-25T21:05:25.305Z,3.74
2017-05-25T21:07:52.990Z,3.56
2017-05-25T21:10:20.412Z,3.38
2017-05-25T21:12:47.728Z,4.22
2017-05-25T21:15:15.041Z,3.70
2017-05-25T21:17:41.625Z,3.50
2017-05-25T21:20:08.834Z,3.40
2017-05-25T21:22:36.148Z,4.34
2017-05-25T21:25:03.494Z,4.48
2017-05-25T21:27:30.784Z,3.42
2017-05-25T21:29:58.109Z,3.88
2017-05-25T21:32:25.462Z,4.20
2017-05-25T21:34:52.765Z,3.78
2017-05-25T21:37:20.108Z,3.54
2017-05-25T21:39:47.449Z,3.68
2017-05-25T21:42:14.754Z,3.72
2017-05-25T21:44:42.053Z,3.70
2017-05-25T21:47:09.361Z,4.12
2017-05-25T21:49:36.665Z,3.78
2017-05-25T21:52:03.989Z,3.66
2017-05-25T21:54:31.305Z,4.10
2017-05-25T21:56:58.724Z,3.64
2017-05-25T21:59:26.040Z,3.70
2017-05-25T22:01:52.526Z,4.14
2017-05-25T22:04:19.848Z,3.80
2017-05-25T22:06:46.428Z,4.40
2017-05-25T22:09:13.742Z,4.30
2017-05-25T22:11:41.071Z,3.48
2017-05-25T22:14:08.238Z,3.64
2017-05-25T22:16:35.420Z,3.92
2017-05-25T22:19:02.776Z,4.00
2017-05-25T22:21:30.092Z,3.72
2017-05-25T22:23:57.440Z,3.98
2017-05-25T22:26:24.786Z,3.82
2017-05-25T22:28:52.096Z,3.78
2017-05-25T22:31:19.449Z,4.26
2017-05-25T22:33:46.770Z,4.02
2017-05-25T22:36:14.080Z,3.70
2017-05-25T22:38:41.388Z,4.26
2017-05-25T22:41:08.726Z,4.38
2017-05-25T22:43:36.041Z,4.44
2017-05-25T22:46:03.344Z,4.00
2017-05-25T22:48:30.644Z,4.58
2017-05-25T22:50:57.960Z,4.16
2017-05-25T22:53:25.658Z,4.44
2017-05-25T22:55:52.864Z,4.38
2017-05-25T22:58:20.164Z,4.44
2017-05-25T23:00:47.469Z,4.10
2017-05-25T23:03:17.550Z,4.34
2017-05-25T23:05:44.945Z,4.44
2017-05-25T23:08:11.532Z,4.56
2017-05-25T23:10:38.868Z,4.62
2017-05-25T23:13:06.107Z,5.28
2017-05-25T23:15:33.412Z,4.70
2017-05-25T23:18:02.097Z,4.78
2017-05-25T23:20:29.940Z,5.18
2017-05-25T23:22:58.296Z,4.52
2017-05-25T23:25:27.039Z,4.62
2017-05-25T23:27:54.406Z,5.20
2017-05-25T23:30:22.121Z,5.64
2017-05-25T23:32:48.857Z,5.74
2017-05-25T23:35:16.170Z,5.46
2017-05-25T23:37:43.717Z,5.94
2017-05-25T23:40:11.202Z,5.92
2017-05-25T23:42:38.877Z,5.36
2017-05-25T23:45:07.041Z,5.72
2017-05-25T23:47:34.437Z,6.22
2017-05-25T23:50:01.883Z,6.02
2017-05-25T23:52:29.451Z,5.86
2017-05-25T23:55:03.913Z,5.96
2017-05-25T23:57:31.301Z,5.58
2017-05-25T23:59:58.734Z,5.50
